Time;durP1;ratioP1;P1;durP2;ratioP2;P2;SDS_P1;SDS_P2;PMS_P1;PMS_P2;Temp;Humidity;BMP_temperature;BMP_pressure;BME280_temperature;BME280_humidity;BME280_pressure;Samples;Min_cycle;Max_cycle;Signal;HPM_P1;HPM_P2
2021/04/16 00:00:37;;;;;;;1.02;0.70;;;;;;;18.68;50.20;103193.03;4925645;29;20035;-73
2021/04/16 00:03:04;;;;;;;1.75;0.60;;;;;;;18.64;50.23;103186.78;4926748;29;20040;-73
2021/04/16 00:05:29;;;;;;;1.65;1.02;;;;;;;18.67;50.07;103191.25;4912139;29;20435;-73
2021/04/16 00:07:55;;;;;;;2.22;0.70;;;;;;;18.65;50.08;103188.56;4927610;29;20028;-73
2021/04/16 00:10:33;;;;;;;2.58;1.15;;;;;;;18.65;50.03;103185.06;4918016;29;20028;-73
2021/04/16 00:13:00;;;;;;;0.88;0.60;;;;;;;18.62;50.17;103182.34;4921120;29;20098;-73
2021/04/16 00:15:27;;;;;;;1.80;0.85;;;;;;;18.66;50.20;103184.22;4916434;29;20032;-72
2021/04/16 00:17:53;;;;;;;1.63;0.95;;;;;;;18.64;50.17;103181.53;4933976;29;20075;-73
2021/04/16 00:20:21;;;;;;;2.60;0.80;;;;;;;18.58;50.13;103170.84;4934460;29;20086;-72
2021/04/16 00:22:47;;;;;;;0.70;0.60;;;;;;;18.64;50.11;103178.03;4927253;29;20047;-73
2021/04/16 00:25:18;;;;;;;1.65;0.85;;;;;;;18.60;49.99;103170.91;4934835;29;20491;-73
2021/04/16 00:27:43;;;;;;;1.50;0.90;;;;;;;18.61;50.01;103160.47;4928923;29;20102;-72
2021/04/16 00:30:10;;;;;;;2.70;1.02;;;;;;;18.61;49.93;103165.72;4921548;29;20023;-73
2021/04/16 00:32:36;;;;;;;1.75;0.95;;;;;;;18.60;49.99;103156.06;4933559;29;20039;-73
2021/04/16 00:35:04;;;;;;;0.90;0.60;;;;;;;18.61;50.16;103162.22;4936909;29;20036;-74
2021/04/16 00:37:29;;;;;;;1.50;1.13;;;;;;;18.55;49.99;103155.03;4904377;29;20486;-73
2021/04/16 00:39:55;;;;;;;1.33;0.80;;;;;;;18.59;50.02;103159.53;4905028;29;20046;-73
2021/04/16 00:42:20;;;;;;;1.45;1.00;;;;;;;18.59;49.91;103156.91;4933165;29;20032;-73
2021/04/16 00:44:45;;;;;;;1.13;0.70;;;;;;;18.57;49.93;103153.31;4938148;29;20038;-73
2021/04/16 00:47:15;;;;;;;3.33;0.80;;;;;;;18.59;49.94;103161.25;4930981;29;20082;-72
2021/04/16 00:49:44;;;;;;;1.02;0.63;;;;;;;18.46;49.91;103141.63;4938001;29;20087;-72
2021/04/16 00:52:12;;;;;;;2.33;0.95;;;;;;;18.52;49.96;103149.69;4933921;29;20083;-72
2021/04/16 00:54:41;;;;;;;1.75;1.10;;;;;;;18.56;49.95;103154.19;4918732;29;20483;-73
2021/04/16 00:57:09;;;;;;;1.08;0.68;;;;;;;18.57;49.85;103153.31;4925432;29;20115;-73
2021/04/16 00:59:39;;;;;;;0.85;0.60;;;;;;;18.52;49.95;103145.34;4930114;29;20032;-73
2021/04/16 01:02:07;;;;;;;1.00;0.60;;;;;;;18.50;49.85;103144.38;4919823;29;20115;-73
2021/04/16 01:04:33;;;;;;;0.95;0.88;;;;;;;18.50;49.92;103143.50;4919319;29;20034;-73
2021/04/16 01:07:01;;;;;;;0.98;0.70;;;;;;;18.55;49.79;103149.78;4925382;29;20067;-73
2021/04/16 01:09:26;;;;;;;1.40;0.90;;;;;;;18.49;49.75;103134.75;4945517;29;20032;-74
2021/04/16 01:11:52;;;;;;;0.40;0.30;;;;;;;18.51;49.44;103140.94;4922198;29;20024;-73
2021/04/16 01:14:18;;;;;;;0.95;0.82;;;;;;;18.55;49.87;103141.94;4908120;29;20043;-73
2021/04/16 01:16:43;;;;;;;0.90;0.70;;;;;;;18.53;49.76;103139.25;4921548;29;20055;-73
2021/04/16 01:19:32;;;;;;;1.00;0.80;;;;;;;18.52;49.67;103147.06;4933885;29;20553;-72
2021/04/16 01:22:25;;;;;;;0.77;0.68;;;;;;;18.53;49.69;103143.59;4922383;29;20040;-73
2021/04/16 01:24:54;;;;;;;2.17;1.05;;;;;;;18.54;49.74;103142.75;4919974;29;20035;-74
2021/04/16 01:27:19;;;;;;;1.05;0.80;;;;;;;18.51;49.68;103137.44;4939021;29;20036;-75
2021/04/16 01:29:46;;;;;;;0.88;0.63;;;;;;;18.51;49.71;103138.31;4918674;29;20032;-73
2021/04/16 01:32:21;;;;;;;1.42;0.60;;;;;;;18.48;49.69;103135.59;4931828;29;20034;-73
2021/04/16 01:34:46;;;;;;;1.05;0.70;;;;;;;18.51;49.63;103147.91;4923315;29;20470;-73
2021/04/16 01:37:11;;;;;;;0.80;0.60;;;;;;;18.49;49.76;103142.59;4937729;29;20083;-73
2021/04/16 01:39:37;;;;;;;0.65;0.65;;;;;;;18.47;49.66;103143.41;4900521;29;20042;-73
2021/04/16 01:42:02;;;;;;;1.27;0.98;;;;;;;18.45;49.63;103139.84;4929016;29;20086;-73
2021/04/16 01:44:29;;;;;;;1.58;0.70;;;;;;;18.47;49.71;103149.53;4918329;29;20083;-73
2021/04/16 01:47:05;;;;;;;1.15;0.60;;;;;;;18.47;49.72;103143.41;4925810;29;20032;-73
2021/04/16 01:49:33;;;;;;;2.25;0.80;;;;;;;18.48;49.68;103150.41;4940968;29;20478;-73
2021/04/16 01:51:58;;;;;;;0.70;0.50;;;;;;;18.43;49.63;103134.56;4921954;29;20035;-68
2021/04/16 01:54:29;;;;;;;0.90;0.85;;;;;;;18.47;49.77;103135.53;4935125;29;20031;-68
2021/04/16 01:57:05;;;;;;;1.48;0.70;;;;;;;18.47;49.55;103135.53;4935083;29;20050;-68
2021/04/16 01:59:34;;;;;;;1.23;0.75;;;;;;;18.46;49.52;103139.00;4914806;29;20027;-69
2021/04/16 02:02:00;;;;;;;0.65;0.40;;;;;;;18.44;49.68;103136.31;4927807;29;20020;-68
2021/04/16 02:04:26;;;;;;;0.88;0.73;;;;;;;18.40;49.52;103124.00;4919202;29;20023;-69
2021/04/16 02:06:52;;;;;;;1.27;0.80;;;;;;;18.44;49.48;103135.44;4918792;29;20091;-68
2021/04/16 02:09:21;;;;;;;0.82;0.65;;;;;;;18.39;49.57;103121.31;4931633;29;20023;-68
2021/04/16 02:11:48;;;;;;;0.77;0.60;;;;;;;18.39;49.79;103126.56;4934340;29;20100;-68
2021/04/16 02:14:15;;;;;;;1.10;0.70;;;;;;;18.37;49.44;103130.84;4921440;29;20422;-68
2021/04/16 02:16:47;;;;;;;1.15;0.85;;;;;;;18.40;49.68;103126.63;4931431;29;20055;-68
2021/04/16 02:19:13;;;;;;;1.63;0.73;;;;;;;18.37;49.56;103126.50;4933994;29;20122;-68
2021/04/16 02:21:38;;;;;;;1.00;0.57;;;;;;;18.42;49.55;103127.56;4934703;29;20043;-68
2021/04/16 02:24:06;;;;;;;1.20;0.52;;;;;;;18.42;49.43;103130.19;4918047;29;20360;-69
2021/04/16 02:26:31;;;;;;;0.88;0.63;;;;;;;18.39;49.55;103119.59;4913380;29;20047;-68
2021/04/16 02:28:57;;;;;;;0.95;0.70;;;;;;;18.42;49.51;103126.66;4914845;29;20043;-68
2021/04/16 02:31:22;;;;;;;0.82;0.60;;;;;;;18.35;49.55;103122.94;4932359;29;20402;-68
2021/04/16 02:33:48;;;;;;;1.17;0.77;;;;;;;18.34;49.98;103121.16;4906249;29;20398;-68
2021/04/16 02:36:13;;;;;;;1.23;0.85;;;;;;;18.39;49.75;103124.81;4907287;29;20024;-68
2021/04/16 02:38:39;;;;;;;0.80;0.80;;;;;;;18.40;49.45;103126.63;4933113;29;20031;-68
2021/04/16 02:41:05;;;;;;;1.20;0.70;;;;;;;18.39;49.51;103129.19;4918400;29;20119;-68
2021/04/16 02:43:31;;;;;;;0.63;0.57;;;;;;;18.39;49.51;103123.94;4921271;29;20032;-68
2021/04/16 02:45:57;;;;;;;1.33;0.68;;;;;;;18.34;49.32;103121.16;4930756;29;20043;-68
2021/04/16 02:48:23;;;;;;;0.70;0.40;;;;;;;18.33;49.43;103122.00;4921181;29;20036;-68
2021/04/16 02:50:49;;;;;;;1.38;0.70;;;;;;;18.37;49.52;103129.13;4934925;29;20454;-68
2021/04/16 02:53:14;;;;;;;0.95;0.57;;;;;;;18.36;49.48;103122.09;4934639;29;20035;-68
2021/04/16 02:55:40;;;;;;;1.20;0.85;;;;;;;18.34;49.43;103115.03;4929919;29;20062;-68
2021/04/16 02:58:05;;;;;;;1.05;0.65;;;;;;;18.37;49.44;103123.00;4917462;29;20076;-68
2021/04/16 03:00:32;;;;;;;2.42;0.88;;;;;;;18.30;49.44;103114.06;4928887;29;20098;-68
2021/04/16 03:02:57;;;;;;;1.15;0.82;;;;;;;18.32;49.38;103117.59;4933327;29;20444;-68
2021/04/16 03:05:23;;;;;;;1.27;0.60;;;;;;;18.24;49.40;103108.63;4927240;29;20119;-68
2021/04/16 03:07:56;;;;;;;1.05;0.55;;;;;;;18.31;49.44;103113.19;5093798;27;20356;-70
2021/04/16 03:10:29;;;;;;;1.13;0.70;;;;;;;18.29;49.31;103106.16;5066169;28;20036;-69
2021/04/16 03:12:54;;;;;;;0.90;0.60;;;;;;;18.34;49.54;103115.03;5071208;28;20479;-69
2021/04/16 03:15:20;;;;;;;1.70;0.77;;;;;;;18.33;49.44;103102.78;5074720;28;20091;-69
2021/04/16 03:17:45;;;;;;;1.65;0.85;;;;;;;18.27;49.48;103103.50;5077426;28;20379;-69
2021/04/16 03:20:13;;;;;;;1.27;0.73;;;;;;;18.31;49.40;103113.19;5071650;28;20402;-69
2021/04/16 03:22:38;;;;;;;1.05;0.70;;;;;;;18.31;49.47;103115.81;5076813;28;20119;-70
2021/04/16 03:25:06;;;;;;;0.57;0.50;;;;;;;18.26;49.26;103098.19;5082471;28;20064;-69
2021/04/16 03:27:31;;;;;;;0.82;0.60;;;;;;;18.26;49.44;103101.72;5078021;28;20029;-69
2021/04/16 03:29:57;;;;;;;2.08;0.70;;;;;;;18.26;49.27;103099.09;5072526;28;20095;-69
2021/04/16 03:32:22;;;;;;;2.40;0.85;;;;;;;18.24;49.40;103094.63;5069611;28;20111;-70
2021/04/16 03:34:47;;;;;;;1.17;0.75;;;;;;;18.30;49.44;103098.34;5079403;28;20485;-69
2021/04/16 03:37:13;;;;;;;0.40;0.40;;;;;;;18.21;49.37;103091.06;5084203;28;20111;-69
2021/04/16 03:39:38;;;;;;;0.50;0.50;;;;;;;18.30;49.38;103106.22;5077171;28;20036;-69
2021/04/16 03:42:03;;;;;;;0.73;0.63;;;;;;;18.27;49.25;103089.50;5075903;28;20055;-70
2021/04/16 03:44:29;;;;;;;0.52;0.50;;;;;;;18.42;49.23;103106.59;5078254;28;20039;-69
2021/04/16 03:46:54;;;;;;;1.10;0.68;;;;;;;18.45;49.01;103104.03;5079052;28;20032;-70
2021/04/16 03:49:20;;;;;;;0.52;0.50;;;;;;;18.44;48.90;103102.25;5075269;28;20028;-73
2021/04/16 03:51:55;;;;;;;0.73;0.60;;;;;;;18.47;49.10;103106.72;5067020;28;20040;-73
2021/04/16 03:54:21;;;;;;;1.27;0.80;;;;;;;18.54;49.13;103106.97;5086081;28;20039;-73
2021/04/16 03:56:47;;;;;;;0.60;0.50;;;;;;;18.56;49.11;103104.41;5078742;28;20055;-69
2021/04/16 03:59:13;;;;;;;1.00;0.60;;;;;;;18.49;49.13;103100.69;5072661;28;20094;-69
2021/04/16 04:01:39;;;;;;;0.60;0.50;;;;;;;18.50;49.22;103102.47;5074208;28;20028;-69
2021/04/16 04:04:05;;;;;;;0.70;0.50;;;;;;;18.54;49.03;103093.88;5075638;28;20032;-69
2021/04/16 04:06:30;;;;;;;0.32;0.32;;;;;;;18.57;49.06;103098.28;5065969;28;20053;-69
2021/04/16 04:08:56;;;;;;;0.93;0.73;;;;;;;18.56;49.01;103097.41;5081799;28;20060;-69
2021/04/16 04:11:21;;;;;;;0.77;0.47;;;;;;;18.60;49.12;103108.00;5077783;28;20046;-70
2021/04/16 04:13:47;;;;;;;0.68;0.40;;;;;;;18.64;48.96;103107.28;5067413;28;20037;-69
2021/04/16 04:16:12;;;;;;;0.70;0.50;;;;;;;18.67;49.11;103113.50;5082754;28;20059;-69
2021/04/16 04:18:37;;;;;;;1.25;0.77;;;;;;;18.68;49.31;103117.03;5040096;28;20036;-73
2021/04/16 04:21:03;;;;;;;1.10;0.70;;;;;;;18.67;49.07;103103.03;5074155;28;20432;-73
2021/04/16 04:23:29;;;;;;;0.80;0.50;;;;;;;18.73;49.20;103103.19;5055834;28;20032;-73
2021/04/16 04:25:54;;;;;;;0.60;0.50;;;;;;;18.76;49.01;103111.16;5025832;28;20422;-73
2021/04/16 04:28:19;;;;;;;1.13;0.75;;;;;;;18.73;49.24;103104.91;5046763;28;20138;-74
2021/04/16 04:30:45;;;;;;;0.73;0.50;;;;;;;18.79;49.15;103108.63;5056408;28;20471;-74
2021/04/16 04:33:11;;;;;;;0.73;0.50;;;;;;;18.82;48.91;103111.34;5067212;28;20027;-73
2021/04/16 04:35:37;;;;;;;0.80;0.50;;;;;;;18.78;49.08;103099.00;5057878;28;20467;-74
2021/04/16 04:38:03;;;;;;;0.47;0.38;;;;;;;18.76;49.00;103099.78;5075535;28;20382;-74
2021/04/16 04:40:29;;;;;;;0.65;0.50;;;;;;;18.86;49.04;103107.94;5040755;28;20028;-74
2021/04/16 04:42:55;;;;;;;0.90;0.43;;;;;;;18.86;48.87;103110.56;5075210;28;20082;-74
2021/04/16 04:45:21;;;;;;;0.90;0.57;;;;;;;18.80;49.04;103102.53;5056397;28;20475;-74
2021/04/16 04:47:47;;;;;;;0.47;0.43;;;;;;;18.86;49.03;103102.72;5054691;28;20036;-74
2021/04/16 04:50:14;;;;;;;2.25;0.65;;;;;;;18.89;48.99;103105.44;5057367;28;20445;-73
2021/04/16 04:52:40;;;;;;;0.52;0.52;;;;;;;18.89;48.77;103107.16;5075636;28;20028;-74
2021/04/16 04:55:13;;;;;;;0.30;0.30;;;;;;;18.89;48.98;103097.56;5037585;28;20391;-73
2021/04/16 04:57:38;;;;;;;0.40;0.40;;;;;;;18.96;48.91;103113.47;5043711;28;20016;-76
2021/04/16 05:00:06;;;;;;;1.60;0.50;;;;;;;18.97;48.74;103099.50;5075973;28;20028;-77
2021/04/16 05:02:32;;;;;;;0.70;0.50;;;;;;;18.92;48.86;103102.00;5038248;28;20090;-76
2021/04/16 05:04:58;;;;;;;1.98;0.60;;;;;;;19.01;48.80;103104.00;5037530;28;20036;-74
2021/04/16 05:07:25;;;;;;;0.57;0.45;;;;;;;19.04;48.63;103106.72;5050967;28;20475;-75
2021/04/16 05:09:50;;;;;;;0.60;0.45;;;;;;;19.04;48.70;103105.00;5045306;28;20124;-73
2021/04/16 05:12:15;;;;;;;0.40;0.40;;;;;;;19.04;48.77;103106.72;5072215;28;20115;-73
2021/04/16 05:14:41;;;;;;;0.60;0.40;;;;;;;19.01;48.91;103106.63;5051559;28;20456;-73
2021/04/16 05:17:06;;;;;;;1.70;1.00;;;;;;;18.87;48.32;103099.25;5050900;28;20041;-73
2021/04/16 05:19:32;;;;;;;1.00;0.57;;;;;;;18.83;48.29;103104.34;5075187;28;20052;-73
2021/04/16 05:22:00;;;;;;;1.90;0.90;;;;;;;18.71;47.81;103099.63;5064924;28;20386;-73
2021/04/16 05:24:26;;;;;;;1.83;1.00;;;;;;;18.64;47.23;103096.78;5055266;28;20036;-73
2021/04/16 05:26:51;;;;;;;2.70;1.20;;;;;;;18.63;46.73;103106.38;5052254;28;20479;-73
2021/04/16 05:29:16;;;;;;;2.00;1.00;;;;;;;18.60;46.53;103105.41;5073403;28;20059;-73
2021/04/16 05:31:42;;;;;;;6.75;1.45;;;;;;;18.54;45.89;103109.59;5065705;28;20102;-73
2021/04/16 05:34:08;;;;;;;4.15;1.40;;;;;;;18.49;45.88;103108.56;5068094;28;20024;-73
2021/04/16 05:36:33;;;;;;;4.32;1.75;;;;;;;18.47;45.78;103107.59;5053752;28;20023;-73
2021/04/16 05:38:59;;;;;;;2.78;1.40;;;;;;;18.50;46.07;103119.91;5055025;28;20051;-73
2021/04/16 05:41:25;;;;;;;5.47;2.35;;;;;;;18.56;45.62;103120.13;5065847;28;20558;-72
2021/04/16 05:43:51;;;;;;;6.53;2.03;;;;;;;18.57;45.90;103121.88;5071045;28;20040;-72
2021/04/16 05:46:16;;;;;;;8.00;2.40;;;;;;;18.59;45.94;103122.84;5059747;28;20120;-72
2021/04/16 05:48:42;;;;;;;6.57;2.92;;;;;;;18.60;46.08;103118.50;5047620;28;20025;-72
2021/04/16 05:51:09;;;;;;;8.48;2.35;;;;;;;18.61;46.28;103120.28;5049505;28;20033;-72
2021/04/16 05:53:35;;;;;;;8.23;3.00;;;;;;;18.53;46.42;103107.81;5064587;28;20052;-72
2021/04/16 05:56:00;;;;;;;7.80;1.98;;;;;;;18.63;46.56;103119.50;5064404;28;20071;-73
2021/04/16 05:58:26;;;;;;;6.82;2.38;;;;;;;18.68;46.79;103110.06;5061503;28;20112;-73
2021/04/16 06:00:51;;;;;;;6.93;2.78;;;;;;;18.73;46.56;103103.19;5061942;28;20059;-70
2021/04/16 06:03:18;;;;;;;4.85;2.28;;;;;;;18.79;46.85;103107.75;5061799;28;20119;-68
2021/04/16 06:05:44;;;;;;;5.88;2.00;;;;;;;18.78;46.99;103106.84;5050560;28;20020;-70
2021/04/16 06:08:10;;;;;;;5.30;2.33;;;;;;;18.93;46.66;103114.28;5074416;28;20063;-73
2021/04/16 06:10:36;;;;;;;4.55;2.72;;;;;;;18.97;46.84;103112.63;5052304;28;20063;-73
2021/04/16 06:13:02;;;;;;;7.60;2.45;;;;;;;19.02;46.91;103117.16;5045308;28;20029;-74
2021/04/16 06:15:28;;;;;;;4.88;2.88;;;;;;;19.08;47.03;103114.72;5045903;28;20040;-73
2021/04/16 06:17:54;;;;;;;5.75;2.72;;;;;;;19.11;46.82;103111.28;5067575;28;20033;-71
2021/04/16 06:20:21;;;;;;;16.42;3.25;;;;;;;19.15;47.01;103103.56;5054687;28;20044;-71
2021/04/16 06:22:49;;;;;;;3.95;2.08;;;;;;;19.21;46.93;103111.56;5073271;28;20039;-71
2021/04/16 06:25:18;;;;;;;2.50;2.10;;;;;;;19.29;46.76;103114.44;5054759;28;20033;-68
2021/04/16 06:27:43;;;;;;;6.63;2.58;;;;;;;19.33;46.68;103105.81;5054925;28;20550;-72
2021/04/16 06:30:10;;;;;;;7.93;2.58;;;;;;;19.38;46.68;103119.03;5073573;28;20776;-73
2021/04/16 06:32:35;;;;;;;3.22;1.98;;;;;;;19.40;46.75;103115.59;5055364;28;20024;-75
2021/04/16 06:35:02;;;;;;;4.20;1.90;;;;;;;19.48;46.60;103106.19;5074409;28;20086;-74
2021/04/16 06:37:27;;;;;;;4.30;1.67;;;;;;;19.51;46.75;103111.56;5072830;28;20028;-73
2021/04/16 06:39:52;;;;;;;6.00;1.92;;;;;;;19.51;46.93;103110.69;5055233;28;20474;-73
2021/04/16 06:42:32;;;;;;;5.72;2.50;;;;;;;19.50;46.80;103104.53;5054650;28;20107;-72
2021/04/16 06:45:02;;;;;;;6.45;2.30;;;;;;;19.61;46.60;103107.44;5046297;28;20064;-73
2021/04/16 06:47:52;;;;;;;3.55;1.73;;;;;;;19.62;47.06;103120.59;5055935;28;20075;-73
2021/04/16 06:50:19;;;;;;;5.32;1.63;;;;;;;19.61;46.92;103108.31;5066753;28;20378;-72
2021/04/16 06:52:53;;;;;;;2.38;1.55;;;;;;;19.71;46.62;103114.72;5055306;28;20386;-72
2021/04/16 06:55:51;;;;;;;4.97;2.22;;;;;;;19.71;46.82;103113.84;5073140;28;20044;-73
2021/04/16 06:58:34;;;;;;;2.85;1.48;;;;;;;19.69;46.79;103110.28;5049088;28;20067;-72
2021/04/16 07:01:35;;;;;;;5.55;2.15;;;;;;;19.81;46.71;103121.09;5071172;28;20028;-73
2021/04/16 07:04:31;;;;;;;2.92;1.33;;;;;;;19.79;46.71;103122.78;5037546;28;20048;-74
2021/04/16 07:07:01;;;;;;;4.18;2.42;;;;;;;19.79;46.92;103112.28;5041509;28;20495;-73
2021/04/16 07:09:31;;;;;;;1.98;1.73;;;;;;;19.88;46.81;103110.78;5033445;28;20125;-72
2021/04/16 07:12:13;;;;;;;4.18;1.80;;;;;;;19.86;46.89;103106.38;5031954;28;20119;-72
2021/04/16 07:14:46;;;;;;;3.67;1.30;;;;;;;19.81;46.95;103101.00;5032186;28;20024;-73
2021/04/16 07:17:17;;;;;;;2.67;1.20;;;;;;;19.94;46.70;103112.69;5032358;28;20037;-73
2021/04/16 07:19:42;;;;;;;4.80;1.58;;;;;;;19.96;46.71;103118.88;5033292;28;20476;-73
2021/04/16 07:22:16;;;;;;;4.25;1.75;;;;;;;19.95;46.86;103114.47;5045499;28;20061;-73
2021/04/16 07:24:42;;;;;;;2.65;1.27;;;;;;;19.96;46.84;103111.00;5017181;28;20026;-73
2021/04/16 07:27:43;;;;;;;2.42;1.30;;;;;;;20.03;46.96;103117.25;5032324;28;20038;-73
2021/04/16 07:30:37;;;;;;;2.03;1.15;;;;;;;20.01;46.75;103119.84;5028539;28;20040;-73
2021/04/16 07:33:05;;;;;;;3.63;1.50;;;;;;;20.01;46.73;103116.34;5029383;28;20044;-72
2021/04/16 07:35:33;;;;;;;4.60;1.40;;;;;;;19.98;46.78;103115.44;5032809;28;20033;-69
2021/04/16 07:38:34;;;;;;;1.95;1.23;;;;;;;19.97;46.84;103113.66;5031331;28;20519;-72
2021/04/16 07:41:27;;;;;;;2.50;1.40;;;;;;;19.94;46.96;103113.56;5022418;28;20072;-73
2021/04/16 07:43:56;;;;;;;1.67;1.58;;;;;;;19.93;47.04;103110.91;5025158;28;20029;-73
2021/04/16 07:46:35;;;;;;;1.75;1.40;;;;;;;19.92;46.94;103109.13;5027199;28;20434;-73
2021/04/16 07:49:13;;;;;;;2.33;1.48;;;;;;;19.91;47.08;103113.50;5032583;28;20064;-75
2021/04/16 07:51:40;;;;;;;2.58;1.40;;;;;;;19.91;47.04;103116.13;5032924;28;20068;-72
2021/04/16 07:54:20;;;;;;;1.90;1.00;;;;;;;19.87;47.01;103102.84;5033537;28;20049;-68
2021/04/16 07:56:47;;;;;;;4.63;1.52;;;;;;;19.90;47.26;103105.56;5030349;28;20041;-68
2021/04/16 07:59:15;;;;;;;3.58;2.15;;;;;;;19.89;47.32;103106.41;5032199;28;20068;-71
2021/04/16 08:01:51;;;;;;;5.07;1.85;;;;;;;19.88;47.34;103100.28;5027984;28;20124;-73
2021/04/16 08:04:19;;;;;;;1.83;1.00;;;;;;;19.90;47.20;103109.09;5019786;28;20066;-72
2021/04/16 08:06:47;;;;;;;2.38;1.52;;;;;;;19.92;47.37;103112.66;5037365;28;20043;-73
2021/04/16 08:09:25;;;;;;;2.10;1.08;;;;;;;19.91;47.47;103110.88;5073892;28;20040;-73
2021/04/16 08:12:00;;;;;;;2.80;1.15;;;;;;;19.86;47.36;103094.09;5083307;28;20423;-73
2021/04/16 08:14:29;;;;;;;4.18;1.30;;;;;;;19.89;47.27;103102.06;5049177;28;20132;-73
2021/04/16 08:16:58;;;;;;;5.50;1.23;;;;;;;19.97;47.44;103112.78;5062943;28;20112;-74
2021/04/16 08:19:30;;;;;;;2.83;1.25;;;;;;;19.93;47.54;103110.91;5066177;28;20063;-74
2021/04/16 08:22:13;;;;;;;5.45;1.25;;;;;;;19.87;47.63;103102.84;5044912;28;20036;-74
2021/04/16 08:24:55;;;;;;;2.88;1.20;;;;;;;19.86;47.74;103103.75;5064476;28;20025;-74
2021/04/16 08:27:58;;;;;;;3.25;1.63;;;;;;;19.89;47.91;103104.69;5063665;28;20025;-74
2021/04/16 08:30:29;;;;;;;3.00;1.10;;;;;;;19.87;48.00;103111.63;5055366;28;20029;-74
2021/04/16 08:33:16;;;;;;;4.20;1.20;;;;;;;19.80;47.74;103093.97;5067035;28;20033;-69
2021/04/16 08:36:00;;;;;;;1.45;0.95;;;;;;;19.85;47.71;103104.59;5068328;28;20133;-69
2021/04/16 08:38:30;;;;;;;;;;;;;;;19.86;47.69;103103.75;5068175;28;20021;-69
2021/04/16 08:41:00;;;;;;;1.95;0.90;;;;;;;19.84;47.95;103103.69;5046770;28;19913;-69
2021/04/16 08:43:28;;;;;;;2.67;1.10;;;;;;;19.82;47.77;103101.88;5065210;28;20036;-69
2021/04/16 08:45:55;;;;;;;1.38;1.02;;;;;;;19.79;47.79;103093.91;5051673;28;20036;-69
2021/04/16 08:48:32;;;;;;;1.55;0.90;;;;;;;19.77;47.83;103098.22;5067659;28;20033;-70
2021/04/16 08:51:01;;;;;;;2.80;1.38;;;;;;;19.76;47.91;103102.59;5057146;28;20029;-69
2021/04/16 08:53:27;;;;;;;2.80;1.23;;;;;;;19.79;47.83;103102.69;5062440;28;20107;-70
2021/04/16 08:55:53;;;;;;;2.58;1.20;;;;;;;19.78;48.01;103106.16;5048016;28;20500;-74
2021/04/16 08:58:31;;;;;;;1.70;1.05;;;;;;;19.74;47.76;103098.16;5061302;28;20021;-81
2021/04/16 09:01:00;;;;;;;1.60;0.90;;;;;;;19.77;48.04;103095.59;5058489;28;20101;-77
2021/04/16 09:03:38;;;;;;;1.80;0.90;;;;;;;19.77;47.99;103095.59;5054512;28;20085;-74
2021/04/16 09:06:05;;;;;;;1.33;1.20;;;;;;;19.74;47.84;103090.28;5054406;28;20033;-74
2021/04/16 09:08:45;;;;;;;2.03;1.10;;;;;;;19.76;47.94;103099.06;5049566;28;20049;-76
2021/04/16 09:11:13;;;;;;;2.53;1.15;;;;;;;19.76;47.80;103097.34;5069532;28;20120;-74
2021/04/16 09:13:38;;;;;;;2.22;1.10;;;;;;;19.74;47.95;103091.16;5072409;28;20490;-74
2021/04/16 09:16:16;;;;;;;3.60;1.05;;;;;;;19.73;47.94;103092.03;5052813;28;20111;-73
2021/04/16 09:18:47;;;;;;;1.85;1.00;;;;;;;19.68;47.91;103098.00;5074424;28;20047;-75
2021/04/16 09:21:26;;;;;;;4.55;2.10;;;;;;;19.62;48.05;103086.50;5070472;28;20376;-74
2021/04/16 09:24:13;;;;;;;2.60;1.70;;;;;;;19.67;48.11;103088.34;5045622;28;20036;-74
2021/04/16 09:26:46;;;;;;;5.88;1.55;;;;;;;19.69;48.17;103095.44;5057841;28;20052;-74
2021/04/16 09:29:27;;;;;;;;;;;;;;;19.68;48.07;103084.88;5075661;28;20028;-74
2021/04/16 09:32:02;;;;;;;1.95;0.98;;;;;;;19.55;48.19;103078.44;5037654;28;20264;-75
2021/04/16 09:34:50;;;;;;;2.78;1.23;;;;;;;19.52;48.22;103083.59;5049981;28;20035;-75
2021/04/16 09:37:40;;;;;;;3.67;1.30;;;;;;;19.55;48.32;103081.06;5054917;28;20059;-74
2021/04/16 09:40:19;;;;;;;2.10;1.25;;;;;;;19.58;47.99;103086.38;5056282;28;20549;-74
2021/04/16 09:42:51;;;;;;;1.35;0.88;;;;;;;19.57;48.01;103080.25;5042671;28;20034;-75
2021/04/16 09:45:32;;;;;;;1.52;0.90;;;;;;;19.57;48.22;103085.50;5071869;28;20031;-74
2021/04/16 09:48:01;;;;;;;1.67;0.82;;;;;;;19.53;47.93;103075.75;5055261;28;20040;-74
2021/04/16 09:50:32;;;;;;;3.65;1.00;;;;;;;19.52;48.04;103073.97;5067767;28;20036;-73
2021/04/16 09:53:22;;;;;;;4.03;0.88;;;;;;;19.57;48.13;103075.00;5051451;28;20025;-74
2021/04/16 09:56:15;;;;;;;2.05;1.13;;;;;;;19.53;48.02;103069.63;5048771;28;20111;-74
2021/04/16 09:58:42;;;;;;;1.73;0.95;;;;;;;19.50;48.23;103070.44;5064081;28;20085;-73
2021/04/16 10:01:10;;;;;;;1.30;1.00;;;;;;;19.46;48.21;103062.41;5067678;28;20031;-73
2021/04/16 10:03:44;;;;;;;1.85;0.80;;;;;;;19.53;48.68;103072.25;5073399;28;20029;-74
2021/04/16 10:06:21;;;;;;;1.67;1.13;;;;;;;19.54;47.99;103064.41;5061006;28;20028;-73
2021/04/16 10:08:47;;;;;;;3.42;1.30;;;;;;;19.51;48.08;103066.94;5059595;28;20044;-74
2021/04/16 10:11:16;;;;;;;3.55;1.48;;;;;;;19.44;48.35;103065.00;5073946;28;20162;-74
2021/04/16 10:13:41;;;;;;;1.92;0.77;;;;;;;19.42;48.25;103071.94;5055966;28;20024;-76
2021/04/16 10:16:25;;;;;;;1.70;1.02;;;;;;;19.34;48.17;103062.09;5073608;28;20037;-74
2021/04/16 10:18:51;;;;;;;2.00;1.48;;;;;;;19.45;48.04;103063.25;5054144;28;20501;-74
2021/04/16 10:21:20;;;;;;;1.90;1.13;;;;;;;19.47;47.98;103056.31;5032839;28;20148;-74
2021/04/16 10:24:19;;;;;;;1.83;1.00;;;;;;;19.45;47.95;103053.66;5055759;28;20504;-74
2021/04/16 10:28:19;;;;;;;2.88;0.98;;;;;;;19.39;48.28;103042.09;5073188;28;20028;-70
2021/04/16 12:40:59;;;;;;;1.60;0.77;;;;;;;19.49;45.57;102976.78;5066379;28;20029;-76
2021/04/16 12:43:25;;;;;;;1.67;0.90;;;;;;;19.52;46.16;102976.88;5074339;28;20028;-74
2021/04/16 12:45:53;;;;;;;1.00;0.80;;;;;;;19.48;46.61;102984.59;5050741;28;20040;-74
2021/04/16 12:48:19;;;;;;;1.17;0.80;;;;;;;19.45;46.76;102988.06;5064915;28;20039;-74
2021/04/16 12:50:45;;;;;;;1.38;0.65;;;;;;;19.45;46.67;102990.69;5057812;28;20112;-74
2021/04/16 12:53:10;;;;;;;1.70;0.90;;;;;;;19.47;46.71;102981.13;5061722;28;20112;-73
2021/04/16 12:55:35;;;;;;;1.90;0.90;;;;;;;19.51;46.76;102979.47;5075468;28;20478;-73
2021/04/16 12:58:06;;;;;;;2.15;0.93;;;;;;;19.54;46.63;102980.44;5032021;28;20103;-70
2021/04/16 13:00:35;;;;;;;2.38;0.90;;;;;;;19.56;46.55;102981.38;5061264;28;20017;-70
2021/04/16 13:03:04;;;;;;;2.20;0.80;;;;;;;19.55;46.45;102965.56;5063340;28;20064;-70
2021/04/16 13:05:31;;;;;;;0.93;0.90;;;;;;;19.56;46.64;102967.34;5074272;28;20032;-69
2021/04/16 13:07:57;;;;;;;3.60;1.10;;;;;;;19.53;46.63;102962.91;5071816;28;20048;-72
2021/04/16 13:10:22;;;;;;;4.55;1.45;;;;;;;19.49;45.98;102961.06;5030383;28;20033;-70
2021/04/16 13:12:48;;;;;;;6.18;1.90;;;;;;;19.39;41.54;102971.25;5040253;28;20107;-69
2021/04/16 13:15:14;;;;;;;2.65;1.35;;;;;;;19.23;39.32;102967.34;5061357;28;20037;-70
2021/04/16 13:17:46;;;;;;;3.88;1.85;;;;;;;19.14;40.60;102968.00;5032306;28;20036;-69
2021/04/16 13:20:14;;;;;;;3.33;1.50;;;;;;;19.11;40.12;102961.78;5064345;28;20037;-69
2021/04/16 13:22:40;;;;;;;2.95;1.40;;;;;;;19.24;40.60;102970.03;5045106;28;20039;-69
2021/04/16 13:25:05;;;;;;;4.65;1.50;;;;;;;19.23;40.27;102965.63;5046320;28;20032;-69
2021/04/16 13:27:31;;;;;;;4.07;1.75;;;;;;;19.24;37.80;102962.16;5034138;28;20033;-69
2021/04/16 13:29:57;;;;;;;11.05;2.40;;;;;;;19.19;36.47;102966.41;5042499;28;20029;-69
2021/04/16 13:32:26;;;;;;;8.48;2.42;;;;;;;19.15;36.63;102963.66;5067545;28;20025;-69
2021/04/16 13:34:56;;;;;;;3.38;1.58;;;;;;;19.02;36.42;102957.22;5041780;28;20119;-69
2021/04/16 13:37:28;;;;;;;3.40;1.70;;;;;;;19.04;35.58;102955.50;5055535;28;20471;-69
2021/04/16 13:39:54;;;;;;;4.35;2.15;;;;;;;19.10;34.81;102957.38;5069825;28;20036;-69
2021/04/16 13:42:19;;;;;;;3.33;1.70;;;;;;;19.05;35.10;102946.81;5062202;28;20024;-69
2021/04/16 13:44:45;;;;;;;5.03;2.10;;;;;;;19.03;33.86;102948.50;5066569;28;20040;-69
2021/04/16 13:47:18;;;;;;;4.80;2.17;;;;;;;18.98;34.62;102957.97;5028687;28;20132;-68
2021/04/16 13:49:44;;;;;;;4.15;2.00;;;;;;;18.84;33.45;102949.72;5056529;28;20059;-69